createdAt,value
2023-11-26T00:01:53.402Z,0.90
2023-11-26T00:04:25.645Z,0.80
2023-11-26T00:06:52.556Z,0.90
2023-11-26T00:09:19.402Z,0.80
2023-11-26T00:11:46.370Z,0.80
2023-11-26T00:14:13.288Z,0.80
2023-11-26T00:16:42.601Z,0.80
2023-11-26T00:19:09.538Z,0.80
2023-11-26T00:21:36.313Z,0.90
2023-11-26T00:24:03.451Z,0.80
2023-11-26T00:26:32.989Z,0.70
2023-11-26T00:28:59.899Z,0.70
2023-11-26T00:31:26.910Z,0.70
2023-11-26T00:33:56.317Z,0.70
2023-11-26T00:36:23.184Z,0.70
2023-11-26T00:38:50.180Z,0.70
2023-11-26T00:41:17.469Z,0.70
2023-11-26T00:43:44.508Z,0.60
2023-11-26T00:46:16.624Z,0.70
2023-11-26T00:48:43.387Z,0.90
2023-11-26T00:51:20.135Z,0.70
2023-11-26T00:53:50.403Z,0.70
2023-11-26T00:56:17.292Z,0.70
2023-11-26T00:58:44.526Z,0.70
2023-11-26T01:01:13.706Z,0.60
2023-11-26T01:03:43.266Z,0.60
2023-11-26T01:06:10.244Z,0.50
2023-11-26T01:08:37.182Z,0.40
2023-11-26T01:11:07.157Z,0.40
2023-11-26T01:13:34.031Z,0.40
2023-11-26T01:16:03.332Z,0.40
2023-11-26T01:18:30.192Z,0.40
2023-11-26T01:20:57.140Z,0.30
2023-11-26T01:23:26.277Z,0.40
2023-11-26T01:25:53.239Z,0.30
2023-11-26T01:28:22.577Z,0.30
2023-11-26T01:30:51.899Z,0.20
2023-11-26T01:33:20.856Z,0.20
2023-11-26T01:35:50.236Z,0.30
2023-11-26T01:38:17.157Z,0.40
2023-11-26T01:40:44.015Z,0.30
2023-11-26T01:43:10.993Z,0.30
2023-11-26T01:45:37.864Z,0.30
2023-11-26T01:48:09.509Z,0.40
2023-11-26T01:50:38.538Z,0.40
2023-11-26T01:53:05.414Z,0.40
2023-11-26T01:55:32.269Z,0.40
2023-11-26T01:57:59.151Z,0.40
2023-11-26T02:00:26.004Z,0.40
2023-11-26T02:02:55.225Z,0.30
2023-11-26T02:05:22.135Z,0.50
2023-11-26T02:07:49.181Z,0.30
2023-11-26T02:10:16.106Z,0.40
2023-11-26T02:13:04.810Z,0.40
2023-11-26T02:15:32.510Z,0.30
2023-11-26T02:18:01.916Z,0.30
2023-11-26T02:20:29.047Z,0.30
2023-11-26T02:22:55.855Z,0.30
2023-11-26T02:25:31.539Z,0.30
2023-11-26T02:28:00.565Z,0.30
2023-11-26T02:30:30.431Z,0.30
2023-11-26T02:32:57.351Z,0.30
2023-11-26T02:35:24.298Z,0.30
2023-11-26T02:37:51.327Z,0.30
2023-11-26T02:40:18.269Z,0.30
2023-11-26T02:42:50.222Z,0.30
2023-11-26T02:45:17.057Z,0.40
2023-11-26T02:47:46.132Z,0.40
2023-11-26T02:50:18.358Z,0.40
2023-11-26T02:52:45.201Z,0.40
2023-11-26T02:55:12.153Z,0.50
2023-11-26T02:57:38.924Z,0.50
2023-11-26T03:00:16.849Z,0.50
2023-11-26T03:02:44.709Z,0.50
2023-11-26T03:05:19.154Z,0.40
2023-11-26T03:07:53.414Z,0.40
2023-11-26T03:10:43.930Z,0.40
2023-11-26T03:13:22.340Z,0.40
2023-11-26T03:15:52.220Z,0.40
2023-11-26T03:18:21.386Z,0.30
2023-11-26T03:20:53.461Z,0.30
2023-11-26T03:23:25.437Z,0.30
2023-11-26T03:25:52.888Z,0.30
2023-11-26T03:28:23.559Z,0.30
2023-11-26T03:30:57.966Z,0.30
2023-11-26T03:33:27.774Z,0.30
2023-11-26T03:35:56.771Z,0.40
2023-11-26T03:38:23.615Z,0.40
2023-11-26T03:40:50.542Z,0.40
2023-11-26T03:43:17.530Z,0.40
2023-11-26T03:45:46.789Z,0.30
2023-11-26T03:48:13.705Z,0.40
2023-11-26T03:50:40.557Z,0.30
2023-11-26T03:53:07.489Z,0.30
2023-11-26T03:55:34.734Z,0.30
2023-11-26T03:58:01.609Z,0.40
2023-11-26T04:00:31.003Z,0.40
2023-11-26T04:03:00.413Z,0.40
2023-11-26T04:05:29.784Z,0.40
2023-11-26T04:07:56.861Z,0.40
2023-11-26T04:10:31.481Z,0.40
2023-11-26T04:13:05.145Z,0.40
2023-11-26T04:15:33.180Z,0.40
2023-11-26T04:18:00.405Z,0.30
2023-11-26T04:20:29.514Z,0.40
2023-11-26T04:22:56.340Z,0.40
2023-11-26T04:25:23.615Z,0.30
2023-11-26T04:27:50.727Z,0.30
2023-11-26T04:30:18.308Z,0.40
2023-11-26T04:32:45.310Z,0.40
2023-11-26T04:35:12.483Z,0.40
2023-11-26T04:37:41.671Z,0.40
2023-11-26T04:40:08.938Z,0.40
2023-11-26T04:42:35.750Z,0.40
2023-11-26T04:45:03.124Z,0.40
2023-11-26T04:47:30.086Z,0.40
2023-11-26T04:49:59.639Z,0.40
2023-11-26T04:52:28.965Z,0.50
2023-11-26T04:54:55.736Z,0.50
2023-11-26T04:57:22.670Z,0.50
2023-11-26T04:59:49.426Z,0.50
2023-11-26T05:02:19.690Z,0.50
2023-11-26T05:04:46.901Z,0.50
2023-11-26T05:07:16.195Z,0.40
2023-11-26T05:09:42.970Z,0.40
2023-11-26T05:12:16.850Z,0.40
2023-11-26T05:14:48.970Z,0.40
2023-11-26T05:17:18.209Z,0.40
2023-11-26T05:19:47.750Z,0.40
2023-11-26T05:22:14.528Z,0.30
2023-11-26T05:24:42.642Z,0.40
2023-11-26T05:27:09.492Z,0.30
2023-11-26T05:29:39.607Z,0.30
2023-11-26T05:32:06.811Z,0.30
2023-11-26T05:34:34.330Z,0.30
2023-11-26T05:37:02.194Z,0.30
2023-11-26T05:39:29.095Z,0.30
2023-11-26T05:41:58.162Z,0.30
2023-11-26T05:44:25.044Z,0.40
2023-11-26T05:46:51.904Z,0.40
2023-11-26T05:49:18.934Z,0.30
2023-11-26T05:51:48.027Z,0.40
2023-11-26T05:54:15.561Z,0.40
2023-11-26T05:56:47.556Z,0.40
2023-11-26T05:59:14.378Z,0.30
2023-11-26T06:01:43.751Z,0.40
2023-11-26T06:04:10.664Z,0.30
2023-11-26T06:06:42.449Z,0.40
2023-11-26T06:09:09.460Z,0.30
2023-11-26T06:11:36.260Z,0.40
2023-11-26T06:14:03.203Z,0.40
2023-11-26T06:16:30.108Z,0.40
2023-11-26T06:18:56.945Z,0.40
2023-11-26T06:21:26.019Z,0.40
2023-11-26T06:23:56.147Z,0.40
2023-11-26T06:26:23.218Z,0.30
2023-11-26T06:28:50.100Z,0.30
2023-11-26T06:31:23.479Z,0.30
2023-11-26T06:33:50.658Z,0.40
2023-11-26T06:36:23.198Z,0.40
2023-11-26T06:38:51.565Z,0.40
2023-11-26T06:41:25.390Z,0.40
2023-11-26T06:43:55.604Z,0.40
2023-11-26T06:46:23.533Z,0.40
2023-11-26T06:48:51.389Z,0.30
2023-11-26T06:51:23.769Z,0.40
2023-11-26T06:53:54.231Z,0.40
2023-11-26T06:56:21.269Z,0.40
2023-11-26T06:58:48.335Z,0.50
2023-11-26T07:01:15.273Z,0.50
2023-11-26T07:03:42.471Z,0.50
2023-11-26T07:06:10.252Z,0.50
2023-11-26T07:08:44.659Z,0.50
2023-11-26T07:11:24.313Z,0.50
2023-11-26T07:13:55.089Z,0.50
2023-11-26T07:16:22.558Z,0.40
2023-11-26T07:18:51.147Z,0.50
2023-11-26T07:21:21.208Z,0.50
2023-11-26T07:23:48.396Z,0.50
2023-11-26T07:26:17.442Z,0.50
2023-11-26T07:28:44.310Z,0.50
2023-11-26T07:31:27.721Z,0.50
2023-11-26T07:33:57.368Z,0.50
2023-11-26T07:36:24.921Z,0.40
2023-11-26T07:39:02.152Z,0.40
2023-11-26T07:41:31.434Z,0.30
2023-11-26T07:43:58.907Z,0.40
2023-11-26T07:46:27.178Z,0.40
2023-11-26T07:48:56.456Z,0.40
2023-11-26T07:51:24.121Z,0.40
2023-11-26T07:53:53.076Z,0.40
2023-11-26T07:56:19.942Z,0.40
2023-11-26T07:58:46.986Z,0.40
2023-11-26T08:01:19.725Z,0.40
2023-11-26T08:03:46.637Z,0.40
2023-11-26T08:06:15.407Z,0.40
2023-11-26T08:08:44.593Z,0.40
2023-11-26T08:11:17.337Z,0.50
2023-11-26T08:13:44.274Z,0.50
2023-11-26T08:16:11.636Z,0.50
2023-11-26T08:18:38.957Z,0.60
2023-11-26T08:21:08.380Z,0.50
2023-11-26T08:23:42.906Z,0.60
2023-11-26T08:26:14.532Z,0.50
2023-11-26T08:28:42.327Z,0.60
2023-11-26T08:31:11.449Z,0.60
2023-11-26T08:33:42.986Z,0.60
2023-11-26T08:36:13.743Z,0.50
2023-11-26T08:38:43.530Z,0.60
2023-11-26T08:41:13.840Z,0.60
2023-11-26T08:43:50.518Z,0.60
2023-11-26T08:46:21.341Z,0.60
2023-11-26T08:48:53.713Z,0.50
2023-11-26T08:51:21.245Z,0.50
2023-11-26T08:53:50.625Z,0.50
2023-11-26T08:56:19.990Z,0.50
2023-11-26T08:58:47.288Z,0.50
2023-11-26T09:01:14.087Z,0.50
2023-11-26T09:03:41.038Z,0.60
2023-11-26T09:06:14.146Z,0.60
2023-11-26T09:08:41.181Z,0.60
2023-11-26T09:11:08.035Z,0.70
2023-11-26T09:13:34.881Z,0.70
2023-11-26T09:16:01.858Z,0.70
2023-11-26T09:18:30.944Z,0.70
2023-11-26T09:20:58.598Z,0.80
2023-11-26T09:23:25.447Z,0.80
2023-11-26T09:25:52.275Z,0.70
2023-11-26T09:28:19.104Z,0.80
2023-11-26T09:30:51.371Z,0.70
2023-11-26T09:33:23.400Z,0.80
2023-11-26T09:35:55.018Z,0.70
2023-11-26T09:38:21.999Z,0.90
2023-11-26T09:40:48.912Z,0.80
2023-11-26T09:43:16.047Z,0.80
2023-11-26T09:45:48.292Z,0.90
2023-11-26T09:48:15.282Z,1.00
2023-11-26T09:50:42.496Z,1.00
2023-11-26T09:53:11.805Z,1.00
2023-11-26T09:55:40.008Z,1.00
2023-11-26T09:58:07.008Z,1.00
2023-11-26T10:00:33.842Z,1.00
2023-11-26T10:03:02.447Z,0.90
2023-11-26T10:05:29.326Z,1.00
2023-11-26T10:07:56.360Z,1.00
2023-11-26T10:10:56.460Z,1.00
2023-11-26T10:13:24.828Z,1.10
2023-11-26T10:15:51.868Z,1.10
2023-11-26T10:18:27.487Z,1.00
2023-11-26T10:20:56.340Z,1.00
2023-11-26T10:23:37.397Z,1.00
2023-11-26T10:26:07.092Z,1.00
2023-11-26T10:28:36.101Z,1.00
2023-11-26T10:31:06.577Z,1.00
2023-11-26T10:33:35.736Z,1.10
2023-11-26T10:36:02.652Z,1.10
2023-11-26T10:38:35.624Z,1.30
2023-11-26T10:41:02.644Z,1.10
2023-11-26T10:43:33.811Z,1.20
2023-11-26T10:46:06.235Z,1.20
2023-11-26T10:48:33.221Z,1.30
2023-11-26T10:51:17.025Z,1.30
2023-11-26T10:53:49.404Z,1.30
2023-11-26T10:56:16.621Z,1.30
2023-11-26T10:58:50.327Z,1.30
2023-11-26T11:01:19.729Z,1.30
2023-11-26T11:03:46.669Z,1.30
2023-11-26T11:06:15.793Z,1.30
2023-11-26T11:08:48.960Z,1.40
2023-11-26T11:12:00.000Z,1.40
2023-11-26T11:14:26.827Z,1.50
2023-11-26T11:16:53.866Z,1.50
2023-11-26T11:19:51.515Z,1.50
2023-11-26T11:22:18.461Z,1.50
2023-11-26T11:24:45.417Z,1.60
2023-11-26T11:27:12.546Z,1.80
2023-11-26T11:29:43.330Z,1.70
2023-11-26T11:32:15.400Z,1.60
2023-11-26T11:34:42.225Z,1.60
2023-11-26T11:37:10.246Z,1.60
2023-11-26T11:39:55.207Z,1.60
2023-11-26T11:42:27.692Z,1.60
2023-11-26T11:44:55.954Z,1.70
2023-11-26T11:47:43.273Z,1.70
2023-11-26T11:50:11.151Z,1.70
2023-11-26T11:52:39.074Z,1.80
2023-11-26T11:55:35.013Z,1.80
2023-11-26T11:58:13.557Z,1.80
2023-11-26T12:00:43.641Z,1.70
2023-11-26T12:03:16.316Z,1.70
2023-11-26T12:05:45.283Z,1.70
2023-11-26T12:08:15.654Z,1.70
2023-11-26T12:10:45.814Z,1.70
2023-11-26T12:13:12.792Z,1.70
2023-11-26T12:15:54.262Z,1.60
2023-11-26T12:18:21.196Z,1.60
2023-11-26T12:20:50.682Z,1.70
2023-11-26T12:23:39.969Z,1.70
2023-11-26T12:26:07.308Z,1.70
2023-11-26T12:28:47.496Z,1.60
2023-11-26T12:31:15.053Z,1.70
2023-11-26T12:33:45.838Z,1.80
2023-11-26T12:36:13.793Z,1.80
2023-11-26T12:38:41.269Z,1.80
2023-11-26T12:41:17.150Z,1.90
2023-11-26T12:43:46.462Z,1.90
2023-11-26T12:46:14.531Z,1.90
2023-11-26T12:48:41.962Z,1.90
2023-11-26T12:51:08.954Z,1.90
2023-11-26T12:53:44.941Z,1.90
2023-11-26T12:56:11.762Z,1.90
2023-11-26T12:58:38.620Z,1.90
2023-11-26T13:01:05.733Z,1.90
2023-11-26T13:03:32.674Z,1.90
2023-11-26T13:06:06.709Z,1.80
2023-11-26T13:08:33.498Z,1.80
2023-11-26T13:11:10.085Z,1.70
2023-11-26T13:13:37.062Z,1.70
2023-11-26T13:16:20.718Z,1.70
2023-11-26T13:18:53.645Z,1.70
2023-11-26T13:21:23.238Z,1.60
2023-11-26T13:23:50.117Z,1.70
2023-11-26T13:26:17.770Z,1.70
2023-11-26T13:28:47.615Z,1.70
2023-11-26T13:31:17.654Z,1.70
2023-11-26T13:33:52.318Z,1.70
2023-11-26T13:36:19.678Z,1.70
2023-11-26T13:38:46.558Z,1.70
2023-11-26T13:41:14.390Z,1.70
2023-11-26T13:43:50.946Z,1.60
2023-11-26T13:46:20.128Z,1.60
2023-11-26T13:48:52.055Z,1.60
2023-11-26T13:51:30.918Z,1.60
2023-11-26T13:53:57.778Z,1.60
2023-11-26T13:56:27.086Z,1.60
2023-11-26T13:58:53.994Z,1.50
2023-11-26T14:01:37.435Z,1.50
2023-11-26T14:04:37.058Z,1.40
2023-11-26T14:07:08.835Z,1.40
2023-11-26T14:09:35.760Z,1.40
2023-11-26T14:12:02.562Z,1.20
2023-11-26T14:14:29.789Z,1.30
2023-11-26T14:20:05.722Z,1.40
2023-11-26T14:22:49.254Z,1.40
2023-11-26T14:25:17.090Z,1.40
2023-11-26T14:27:45.090Z,1.40
2023-11-26T14:30:14.049Z,1.40
2023-11-26T14:32:43.821Z,1.40
2023-11-26T14:35:15.493Z,1.50
2023-11-26T14:37:43.891Z,1.30
2023-11-26T14:40:12.404Z,1.30
2023-11-26T14:42:43.252Z,1.30
2023-11-26T14:45:13.949Z,1.30
2023-11-26T14:47:47.758Z,1.30
2023-11-26T14:50:14.848Z,1.30
2023-11-26T14:52:41.999Z,1.30
2023-11-26T14:55:14.787Z,1.40
2023-11-26T14:57:44.838Z,1.30
2023-11-26T15:00:13.112Z,1.30
2023-11-26T15:02:40.536Z,1.20
2023-11-26T15:05:08.262Z,1.20
2023-11-26T15:07:37.846Z,1.20
2023-11-26T15:10:12.332Z,1.10
2023-11-26T15:12:39.531Z,1.10
2023-11-26T15:15:07.143Z,1.10
2023-11-26T15:17:34.042Z,1.10
2023-11-26T15:20:03.340Z,1.10
2023-11-26T15:22:30.458Z,1.10
2023-11-26T15:24:57.533Z,1.10
2023-11-26T15:27:24.805Z,1.10
2023-11-26T15:29:52.868Z,1.10
2023-11-26T15:32:19.729Z,1.10
2023-11-26T15:34:51.479Z,1.10
2023-11-26T15:37:18.428Z,0.90
2023-11-26T15:39:50.457Z,1.00
2023-11-26T15:42:17.485Z,1.00
2023-11-26T15:44:44.357Z,1.00
2023-11-26T15:47:13.011Z,1.10
2023-11-26T15:49:40.737Z,1.10
2023-11-26T15:52:09.922Z,1.00
2023-11-26T15:54:41.636Z,1.00
2023-11-26T15:57:09.842Z,1.10
2023-11-26T15:59:38.742Z,1.00
2023-11-26T16:02:05.710Z,1.00
2023-11-26T16:04:34.791Z,1.00
2023-11-26T16:07:06.534Z,1.00
2023-11-26T16:09:36.055Z,1.00
2023-11-26T16:12:06.712Z,1.10
2023-11-26T16:14:33.564Z,1.00
2023-11-26T16:17:10.984Z,1.00
2023-11-26T16:19:47.946Z,1.10
2023-11-26T16:22:15.151Z,1.00
2023-11-26T16:24:42.185Z,1.00
2023-11-26T16:27:09.105Z,1.00
2023-11-26T16:29:36.036Z,1.00
2023-11-26T16:32:03.199Z,0.90
2023-11-26T16:34:30.323Z,0.90
2023-11-26T16:36:57.361Z,0.90
2023-11-26T16:39:24.224Z,1.00
2023-11-26T16:41:54.191Z,1.00
2023-11-26T16:44:27.733Z,1.00
2023-11-26T16:46:54.692Z,0.90
2023-11-26T16:49:21.697Z,0.90
2023-11-26T16:51:48.732Z,0.90
2023-11-26T16:54:15.637Z,0.90
2023-11-26T16:56:43.277Z,0.90
2023-11-26T16:59:10.260Z,0.90
2023-11-26T17:01:37.286Z,0.90
2023-11-26T17:04:05.608Z,1.00
2023-11-26T17:06:32.642Z,1.00
2023-11-26T17:08:59.913Z,1.00
2023-11-26T17:11:26.778Z,1.00
2023-11-26T17:13:53.776Z,1.00
2023-11-26T17:16:20.932Z,0.90
2023-11-26T17:18:47.964Z,1.00
2023-11-26T17:21:14.851Z,1.00
2023-11-26T17:23:45.130Z,1.00
2023-11-26T17:26:23.228Z,1.00
2023-11-26T17:28:52.320Z,1.00
2023-11-26T17:31:23.017Z,1.10
2023-11-26T17:33:50.084Z,1.10
2023-11-26T17:36:16.893Z,1.00
2023-11-26T17:38:43.743Z,1.00
2023-11-26T17:41:10.577Z,1.00
2023-11-26T17:43:40.794Z,1.00
2023-11-26T17:46:07.770Z,1.00
2023-11-26T17:48:35.245Z,1.00
2023-11-26T17:51:02.104Z,1.00
2023-11-26T17:53:28.990Z,1.00
2023-11-26T17:55:58.251Z,1.00
2023-11-26T17:58:28.459Z,1.00
2023-11-26T18:00:57.768Z,1.00
2023-11-26T18:03:25.097Z,1.00
2023-11-26T18:05:52.856Z,1.00
2023-11-26T18:08:19.744Z,1.00
2023-11-26T18:10:48.827Z,1.00
2023-11-26T18:13:15.684Z,1.00
2023-11-26T18:15:42.544Z,0.90
2023-11-26T18:18:09.550Z,1.00
2023-11-26T18:20:36.451Z,0.90
2023-11-26T18:23:05.464Z,0.90
2023-11-26T18:25:35.234Z,1.00
2023-11-26T18:28:02.158Z,0.90
2023-11-26T18:30:29.061Z,0.90
2023-11-26T18:32:55.923Z,0.90
2023-11-26T18:35:24.855Z,0.90
2023-11-26T18:37:51.878Z,0.80
2023-11-26T18:40:18.987Z,0.80
2023-11-26T18:42:50.605Z,0.90
2023-11-26T18:45:21.259Z,0.90
2023-11-26T18:47:48.060Z,0.80
2023-11-26T18:50:17.786Z,0.80
2023-11-26T18:52:46.746Z,0.90
2023-11-26T18:55:13.660Z,0.90
2023-11-26T18:57:40.821Z,0.80
2023-11-26T19:00:10.802Z,0.90
2023-11-26T19:02:37.831Z,0.90
2023-11-26T19:05:07.267Z,0.90
2023-11-26T19:07:38.909Z,0.90
2023-11-26T19:10:06.259Z,0.90
2023-11-26T19:12:33.152Z,0.90
2023-11-26T19:15:02.980Z,0.90
2023-11-26T19:17:32.156Z,0.90
2023-11-26T19:19:59.027Z,0.90
2023-11-26T19:22:28.004Z,0.90
2023-11-26T19:24:54.922Z,0.90
2023-11-26T19:27:21.915Z,0.90
2023-11-26T19:29:48.841Z,0.90
2023-11-26T19:32:22.550Z,0.90
2023-11-26T19:34:51.985Z,0.90
2023-11-26T19:37:21.539Z,0.90
2023-11-26T19:39:50.884Z,0.80
2023-11-26T19:42:17.805Z,0.80
2023-11-26T19:44:45.036Z,0.80
2023-11-26T19:47:12.579Z,0.80
2023-11-26T19:49:39.461Z,0.70
2023-11-26T19:52:06.965Z,0.80
2023-11-26T19:54:34.008Z,0.80
2023-11-26T19:57:00.984Z,0.80
2023-11-26T19:59:30.862Z,0.80
2023-11-26T20:02:00.688Z,0.80
2023-11-26T20:04:27.677Z,0.80
2023-11-26T20:06:54.643Z,0.80
2023-11-26T20:09:21.913Z,0.90
2023-11-26T20:11:48.725Z,0.80
2023-11-26T20:14:15.707Z,0.80
2023-11-26T20:16:44.831Z,0.80
2023-11-26T20:19:11.839Z,0.70
2023-11-26T20:21:38.711Z,0.70
2023-11-26T20:24:19.164Z,0.70
2023-11-26T20:26:46.052Z,0.70
2023-11-26T20:29:15.244Z,0.70
2023-11-26T20:31:42.989Z,0.70
2023-11-26T20:34:09.867Z,0.70
2023-11-26T20:36:39.035Z,0.70
2023-11-26T20:39:08.773Z,0.70
2023-11-26T20:41:36.512Z,0.70
2023-11-26T20:44:03.566Z,0.70
2023-11-26T20:46:30.558Z,0.70
2023-11-26T20:48:57.518Z,0.60
2023-11-26T20:51:32.285Z,0.70
2023-11-26T20:54:05.216Z,0.70
2023-11-26T20:56:32.194Z,0.70
2023-11-26T20:58:59.755Z,0.70
2023-11-26T21:01:31.143Z,0.80
2023-11-26T21:03:59.323Z,0.70
2023-11-26T21:06:30.371Z,0.70
2023-11-26T21:08:57.233Z,0.70
2023-11-26T21:11:28.405Z,0.70
2023-11-26T21:13:55.338Z,0.70
2023-11-26T21:16:22.440Z,0.70
2023-11-26T21:18:51.579Z,0.70
2023-11-26T21:21:21.001Z,0.70
2023-11-26T21:23:47.861Z,0.70
2023-11-26T21:26:14.882Z,0.70
2023-11-26T21:28:41.817Z,0.70
2023-11-26T21:31:09.216Z,0.70
2023-11-26T21:33:38.365Z,0.70
2023-11-26T21:36:05.740Z,0.80
2023-11-26T21:38:32.843Z,0.70
2023-11-26T21:41:07.019Z,0.70
2023-11-26T21:43:37.840Z,0.80
2023-11-26T21:46:08.545Z,0.80
2023-11-26T21:48:35.538Z,0.90
2023-11-26T21:51:04.946Z,0.90
2023-11-26T21:53:31.766Z,0.80
2023-11-26T21:55:58.624Z,0.80
2023-11-26T21:58:25.461Z,0.80
2023-11-26T22:00:54.911Z,0.70
2023-11-26T22:03:21.983Z,0.80
2023-11-26T22:05:48.964Z,0.70
2023-11-26T22:08:18.246Z,0.70
2023-11-26T22:10:47.300Z,0.70
2023-11-26T22:13:14.194Z,0.70
2023-11-26T22:15:46.534Z,0.70
2023-11-26T22:18:13.416Z,0.70
2023-11-26T22:20:40.387Z,0.70
2023-11-26T22:23:07.222Z,0.70
2023-11-26T22:25:34.086Z,0.70
2023-11-26T22:30:56.068Z,0.70
2023-11-26T22:33:45.757Z,0.70
2023-11-26T22:36:22.239Z,0.70
2023-11-26T22:38:49.462Z,0.70
2023-11-26T22:41:28.888Z,0.80
2023-11-26T22:43:56.782Z,0.80
2023-11-26T22:46:30.597Z,0.90
2023-11-26T22:49:00.346Z,0.80
2023-11-26T22:51:34.265Z,0.70
2023-11-26T22:54:01.565Z,0.80
2023-11-26T22:56:28.428Z,0.70
2023-11-26T22:58:57.900Z,0.80
2023-11-26T23:01:25.320Z,0.80
2023-11-26T23:03:53.077Z,0.80
2023-11-26T23:06:20.148Z,0.70
2023-11-26T23:08:48.126Z,0.70
2023-11-26T23:11:21.761Z,0.60
2023-11-26T23:13:52.764Z,0.60
2023-11-26T23:16:25.238Z,0.60
2023-11-26T23:18:52.213Z,0.70
2023-11-26T23:21:19.147Z,0.70
2023-11-26T23:23:51.824Z,0.70
2023-11-26T23:26:24.875Z,0.70
2023-11-26T23:28:54.263Z,0.70
2023-11-26T23:31:22.397Z,0.60
2023-11-26T23:33:49.919Z,0.70
2023-11-26T23:36:17.453Z,0.70
2023-11-26T23:38:44.476Z,0.70
2023-11-26T23:41:12.689Z,0.70
2023-11-26T23:43:41.015Z,0.70
2023-11-26T23:46:19.886Z,0.70
2023-11-26T23:48:49.659Z,0.60
2023-11-26T23:51:19.039Z,0.60
2023-11-26T23:53:48.052Z,0.60
2023-11-26T23:56:17.198Z,0.70
2023-11-26T23:58:46.850Z,0.70
